Time;durP1;ratioP1;P1;durP2;ratioP2;P2;SDS_P1;SDS_P2;PMS_P1;PMS_P2;Temp;Humidity;BMP_temperature;BMP_pressure;BME280_temperature;BME280_humidity;BME280_pressure;Samples;Min_cycle;Max_cycle;Signal;HPM_P1;HPM_P2
2021/01/07 00:02:25;;;;;;;0.30;0.30;;;2.00;99.90;;;;;;4430813;32;20073;-59
2021/01/07 00:04:51;;;;;;;0.40;0.40;;;2.00;99.90;;;;;;4430856;32;20085;-59
2021/01/07 00:07:16;;;;;;;0.30;0.30;;;2.00;99.90;;;;;;4418001;32;20065;-58
2021/01/07 00:09:42;;;;;;;0.30;0.30;;;2.10;99.90;;;;;;4414700;32;20070;-60
2021/01/07 00:12:07;;;;;;;0.40;0.40;;;2.00;99.90;;;;;;4426022;32;20077;-59
2021/01/07 00:14:33;;;;;;;0.30;0.30;;;2.10;99.90;;;;;;4430691;32;20077;-59
2021/01/07 00:16:58;;;;;;;0.30;0.30;;;2.20;99.90;;;;;;4429861;32;20228;-58
2021/01/07 00:19:23;;;;;;;0.37;0.37;;;2.10;99.90;;;;;;4413414;32;20069;-60
2021/01/07 00:21:49;;;;;;;0.30;0.30;;;2.10;99.90;;;;;;4415089;32;20065;-60
2021/01/07 00:24:15;;;;;;;0.30;0.30;;;2.00;99.90;;;;;;4413793;32;20428;-60
2021/01/07 00:26:40;;;;;;;0.40;0.40;;;2.00;99.90;;;;;;4415409;32;20125;-59
2021/01/07 00:29:06;;;;;;;0.30;0.30;;;2.00;99.90;;;;;;4415166;32;20558;-59
2021/01/07 00:31:32;;;;;;;0.80;0.60;;;2.00;99.90;;;;;;4415277;32;20089;-60
2021/01/07 00:33:58;;;;;;;0.57;0.57;;;2.00;99.90;;;;;;4400500;32;20082;-60
2021/01/07 00:36:23;;;;;;;0.40;0.40;;;2.00;99.90;;;;;;4414445;32;20069;-60
2021/01/07 00:38:49;;;;;;;0.30;0.30;;;1.90;99.90;;;;;;4413568;32;20065;-59
2021/01/07 00:41:18;;;;;;;0.50;0.50;;;1.90;99.90;;;;;;4420453;32;20081;-60
2021/01/07 00:43:46;;;;;;;0.60;0.60;;;2.00;99.90;;;;;;4430001;32;20393;-60
2021/01/07 00:46:12;;;;;;;0.40;0.40;;;2.00;99.90;;;;;;4416126;32;20062;-60
2021/01/07 00:48:37;;;;;;;0.40;0.40;;;2.00;99.90;;;;;;4430726;32;20120;-56
2021/01/07 00:51:04;;;;;;;0.80;0.70;;;2.00;99.90;;;;;;4428932;32;20070;-60
2021/01/07 00:53:29;;;;;;;0.40;0.40;;;1.90;99.90;;;;;;4428965;32;20514;-59
2021/01/07 00:55:55;;;;;;;0.50;0.50;;;2.00;99.90;;;;;;4429967;32;20057;-60
2021/01/07 00:58:20;;;;;;;0.30;0.30;;;2.10;99.90;;;;;;4429001;32;20522;-60
2021/01/07 01:00:46;;;;;;;0.40;0.40;;;2.10;99.90;;;;;;4429604;32;20419;-60
2021/01/07 01:03:13;;;;;;;0.30;0.30;;;2.10;99.90;;;;;;4430496;32;20073;-59
2021/01/07 01:05:38;;;;;;;0.43;0.43;;;2.10;99.90;;;;;;4431151;32;20068;-59
2021/01/07 01:08:04;;;;;;;0.40;0.40;;;2.00;99.90;;;;;;4445271;32;20466;-59
2021/01/07 01:10:30;;;;;;;0.30;0.30;;;2.00;99.90;;;;;;4442649;32;20065;-59
2021/01/07 01:12:55;;;;;;;0.30;0.30;;;2.00;99.90;;;;;;4429862;32;20069;-60
2021/01/07 01:15:20;;;;;;;0.40;0.40;;;2.00;99.90;;;;;;4429989;32;20078;-60
2021/01/07 01:17:46;;;;;;;0.40;0.40;;;1.90;99.90;;;;;;4434708;32;20065;-60
2021/01/07 01:20:13;;;;;;;0.40;0.40;;;1.90;99.90;;;;;;4444257;32;20424;-58
2021/01/07 01:22:40;;;;;;;0.30;0.30;;;1.90;99.90;;;;;;4430482;32;20088;-59
2021/01/07 01:25:08;;;;;;;0.40;0.40;;;2.00;99.90;;;;;;4443085;32;20070;-58
2021/01/07 01:27:35;;;;;;;1.55;0.73;;;2.00;99.90;;;;;;4431056;32;20065;-59
2021/01/07 01:30:01;;;;;;;0.30;0.30;;;2.00;99.90;;;;;;4443209;32;20073;-58
2021/01/07 01:32:26;;;;;;;0.52;0.52;;;2.00;99.90;;;;;;4444824;32;20056;-58
2021/01/07 01:34:52;;;;;;;0.43;0.43;;;2.00;99.90;;;;;;4444252;32;20538;-59
2021/01/07 01:37:18;;;;;;;0.60;0.60;;;2.00;99.90;;;;;;4445904;32;20073;-60
2021/01/07 01:39:43;;;;;;;0.40;0.40;;;2.00;99.90;;;;;;4443544;32;20069;-60
2021/01/07 01:42:11;;;;;;;0.30;0.30;;;2.00;99.90;;;;;;4444123;32;20142;-60
2021/01/07 01:44:36;;;;;;;0.30;0.30;;;2.00;99.90;;;;;;4443519;32;20077;-58
2021/01/07 01:47:02;;;;;;;0.60;0.60;;;2.00;99.90;;;;;;4444138;32;20514;-60
2021/01/07 01:49:27;;;;;;;0.40;0.40;;;2.10;99.90;;;;;;4445114;32;20431;-60
2021/01/07 01:51:54;;;;;;;0.30;0.30;;;2.00;99.90;;;;;;4443677;32;20076;-59
2021/01/07 01:54:19;;;;;;;0.40;0.40;;;2.00;99.90;;;;;;4443215;32;20069;-60
2021/01/07 01:56:46;;;;;;;0.88;0.80;;;2.00;99.90;;;;;;4444355;32;20447;-57
2021/01/07 01:59:13;;;;;;;0.30;0.30;;;2.00;99.90;;;;;;4440764;32;20061;-59
2021/01/07 02:01:39;;;;;;;0.50;0.50;;;1.90;99.90;;;;;;4428686;32;20081;-60
2021/01/07 02:04:04;;;;;;;0.30;0.30;;;1.90;99.90;;;;;;4429268;32;20062;-57
2021/01/07 02:06:33;;;;;;;0.37;0.37;;;1.80;99.90;;;;;;4434734;32;20085;-60
2021/01/07 02:09:00;;;;;;;0.40;0.40;;;1.80;99.90;;;;;;4444594;32;20053;-60
2021/01/07 02:11:25;;;;;;;0.40;0.40;;;1.80;99.90;;;;;;4437534;32;20124;-59
2021/01/07 02:13:51;;;;;;;0.40;0.40;;;1.80;99.90;;;;;;4429348;32;20550;-59
2021/01/07 02:16:20;;;;;;;0.35;0.35;;;1.90;99.90;;;;;;4429039;32;20078;-59
2021/01/07 02:18:46;;;;;;;0.50;0.50;;;1.90;99.90;;;;;;4440344;32;20085;-59
2021/01/07 02:21:12;;;;;;;0.40;0.40;;;1.90;99.90;;;;;;4446654;32;20065;-59
2021/01/07 02:23:50;;;;;;;0.30;0.30;;;1.80;99.90;;;;;;4447316;32;20076;-60
2021/01/07 02:26:18;;;;;;;0.40;0.40;;;1.80;99.90;;;;;;4445865;32;20424;-59
2021/01/07 02:28:44;;;;;;;0.37;0.37;;;1.90;99.90;;;;;;4433930;32;20065;-59
2021/01/07 02:31:10;;;;;;;0.40;0.40;;;1.90;99.90;;;;;;4444987;32;20119;-60
2021/01/07 02:33:35;;;;;;;0.30;0.30;;;1.90;99.90;;;;;;4445505;32;20057;-60
2021/01/07 02:36:00;;;;;;;0.35;0.35;;;1.90;99.90;;;;;;4447547;32;20069;-58
2021/01/07 02:38:26;;;;;;;0.40;0.40;;;2.00;99.90;;;;;;4447338;32;20081;-60
2021/01/07 02:40:51;;;;;;;0.40;0.40;;;1.90;99.90;;;;;;4445270;32;20432;-60
2021/01/07 02:43:17;;;;;;;0.40;0.40;;;1.90;99.90;;;;;;4446290;32;20111;-60
2021/01/07 02:45:42;;;;;;;0.30;0.30;;;1.90;99.90;;;;;;4445434;32;20068;-59
2021/01/07 02:48:08;;;;;;;0.47;0.47;;;1.90;99.90;;;;;;4446872;32;20080;-60
2021/01/07 02:50:34;;;;;;;0.47;0.47;;;1.90;99.90;;;;;;4445576;32;20085;-60
2021/01/07 02:52:59;;;;;;;0.47;0.47;;;1.90;99.90;;;;;;4445662;32;20083;-58
2021/01/07 02:55:24;;;;;;;0.40;0.40;;;1.80;99.90;;;;;;4446560;32;20089;-59
2021/01/07 02:57:50;;;;;;;0.40;0.40;;;1.90;99.90;;;;;;4446768;32;20053;-56
2021/01/07 03:00:16;;;;;;;0.40;0.40;;;1.90;99.90;;;;;;4446651;32;20235;-60
2021/01/07 03:02:41;;;;;;;0.40;0.40;;;1.90;99.90;;;;;;4444779;32;20424;-60
2021/01/07 03:05:07;;;;;;;0.20;0.20;;;1.80;99.90;;;;;;4446374;32;20081;-58
2021/01/07 03:07:33;;;;;;;0.40;0.40;;;1.90;99.90;;;;;;4433164;32;20073;-60
2021/01/07 03:09:58;;;;;;;0.30;0.30;;;1.80;99.90;;;;;;4429560;32;20085;-60
2021/01/07 03:12:23;;;;;;;0.95;0.82;;;1.80;99.90;;;;;;4443845;32;20061;-60
2021/01/07 03:14:49;;;;;;;0.50;0.50;;;1.90;99.90;;;;;;4445712;32;20069;-58
2021/01/07 03:17:15;;;;;;;0.40;0.40;;;1.80;99.90;;;;;;4445128;32;20068;-59
2021/01/07 03:19:41;;;;;;;0.40;0.40;;;1.80;99.90;;;;;;4417571;32;20073;-60
2021/01/07 03:22:06;;;;;;;0.35;0.35;;;1.90;99.90;;;;;;4416722;32;20073;-60
2021/01/07 03:24:33;;;;;;;0.47;0.47;;;1.90;99.90;;;;;;4430768;32;20073;-59
2021/01/07 03:26:59;;;;;;;0.60;0.60;;;1.80;99.90;;;;;;4416419;32;20057;-58
2021/01/07 03:29:25;;;;;;;0.37;0.37;;;1.70;99.90;;;;;;4428371;32;20073;-59
2021/01/07 03:31:51;;;;;;;0.40;0.40;;;1.80;99.90;;;;;;4417127;32;20180;-59
2021/01/07 03:34:17;;;;;;;0.55;0.55;;;1.90;99.90;;;;;;4416653;32;20069;-59
2021/01/07 03:36:42;;;;;;;0.47;0.47;;;1.90;99.90;;;;;;4431288;32;20160;-59
2021/01/07 03:39:08;;;;;;;0.60;0.60;;;1.90;99.90;;;;;;4430922;32;20157;-60
2021/01/07 03:41:33;;;;;;;0.30;0.30;;;2.00;99.90;;;;;;4430799;32;20074;-59
2021/01/07 03:43:59;;;;;;;0.43;0.43;;;1.90;99.90;;;;;;4430715;32;20112;-60
2021/01/07 03:46:24;;;;;;;0.50;0.50;;;1.90;99.90;;;;;;4430425;32;20086;-57
2021/01/07 03:48:50;;;;;;;1.48;1.02;;;1.80;99.90;;;;;;4429895;32;20065;-60
2021/01/07 03:51:15;;;;;;;0.30;0.30;;;1.80;99.90;;;;;;4430264;32;20078;-59
2021/01/07 03:53:41;;;;;;;0.40;0.40;;;1.90;99.90;;;;;;4429746;32;20527;-60
2021/01/07 03:56:06;;;;;;;0.68;0.68;;;1.90;99.90;;;;;;4430599;32;20065;-60
2021/01/07 03:58:32;;;;;;;0.37;0.37;;;1.80;99.90;;;;;;4430472;32;20131;-59
2021/01/07 04:00:57;;;;;;;1.12;0.60;;;1.90;99.90;;;;;;4430607;32;20392;-60
2021/01/07 04:03:23;;;;;;;0.73;0.73;;;1.90;99.90;;;;;;4429868;32;20057;-60
2021/01/07 04:05:48;;;;;;;0.40;0.40;;;1.90;99.90;;;;;;4429477;32;20081;-57
2021/01/07 04:08:14;;;;;;;1.17;0.57;;;1.90;99.90;;;;;;4429432;32;20512;-60
2021/01/07 04:10:39;;;;;;;1.00;0.65;;;1.90;99.90;;;;;;4430780;32;20081;-58
2021/01/07 04:13:05;;;;;;;0.40;0.40;;;1.90;99.90;;;;;;4444716;32;20077;-58
2021/01/07 04:15:30;;;;;;;0.30;0.30;;;1.90;99.90;;;;;;4445840;32;20513;-60
2021/01/07 04:17:55;;;;;;;0.52;0.52;;;1.90;99.90;;;;;;4440010;32;20065;-57
2021/01/07 04:20:21;;;;;;;0.37;0.37;;;2.00;99.90;;;;;;4430118;32;20065;-58
2021/01/07 04:22:46;;;;;;;0.40;0.40;;;2.00;99.90;;;;;;4430115;32;20434;-57
2021/01/07 04:25:12;;;;;;;0.77;0.77;;;2.00;99.90;;;;;;4430264;32;20080;-58
2021/01/07 04:27:37;;;;;;;0.40;0.40;;;2.00;99.90;;;;;;4429594;32;20065;-59
2021/01/07 04:30:04;;;;;;;0.40;0.40;;;2.00;99.90;;;;;;4430234;32;20090;-59
2021/01/07 04:32:30;;;;;;;0.70;0.70;;;2.00;99.90;;;;;;4415718;32;20069;-59
2021/01/07 04:34:55;;;;;;;0.50;0.50;;;1.80;99.90;;;;;;4429761;32;20116;-59
2021/01/07 04:37:20;;;;;;;1.85;0.68;;;1.70;99.90;;;;;;4430445;32;20062;-58
2021/01/07 04:39:46;;;;;;;0.77;0.77;;;1.80;99.90;;;;;;4428896;32;20123;-59
2021/01/07 04:42:12;;;;;;;0.40;0.40;;;1.80;99.90;;;;;;4429495;32;20069;-58
2021/01/07 04:44:38;;;;;;;0.30;0.30;;;1.80;99.90;;;;;;4430189;32;20065;-58
2021/01/07 04:47:04;;;;;;;0.55;0.55;;;1.80;99.90;;;;;;4428781;32;20085;-58
2021/01/07 04:49:30;;;;;;;0.57;0.57;;;1.80;99.90;;;;;;4429120;32;20077;-56
2021/01/07 04:51:56;;;;;;;0.40;0.40;;;1.90;99.90;;;;;;4429626;32;20541;-58
2021/01/07 04:54:22;;;;;;;0.40;0.40;;;1.80;99.90;;;;;;4428721;32;20514;-57
2021/01/07 04:56:48;;;;;;;0.40;0.40;;;1.80;99.90;;;;;;4429548;32;20538;-54
2021/01/07 04:59:14;;;;;;;0.60;0.60;;;1.80;99.90;;;;;;4428732;32;20409;-57
2021/01/07 05:01:41;;;;;;;0.40;0.40;;;1.90;99.90;;;;;;4427922;32;20124;-58
2021/01/07 05:04:09;;;;;;;0.43;0.43;;;1.90;99.90;;;;;;4429722;32;20061;-59
2021/01/07 05:06:35;;;;;;;0.30;0.30;;;1.90;99.90;;;;;;4429787;32;20065;-58
2021/01/07 05:09:03;;;;;;;0.40;0.40;;;1.90;99.90;;;;;;4428792;32;20298;-59
2021/01/07 05:11:30;;;;;;;0.50;0.50;;;1.90;99.90;;;;;;4436222;32;20128;-58
2021/01/07 05:14:05;;;;;;;0.50;0.50;;;1.90;99.90;;;;;;4444849;32;20516;-58
2021/01/07 05:16:31;;;;;;;0.30;0.30;;;1.90;99.90;;;;;;4443981;32;20360;-58
2021/01/07 05:18:57;;;;;;;0.40;0.40;;;1.90;99.90;;;;;;4431524;32;20073;-54
2021/01/07 05:21:24;;;;;;;0.40;0.40;;;1.90;99.90;;;;;;4415706;32;20081;-59
2021/01/07 05:23:51;;;;;;;0.82;0.82;;;1.90;99.90;;;;;;4426986;32;20085;-57
2021/01/07 05:26:18;;;;;;;0.45;0.45;;;1.90;99.90;;;;;;4414729;32;20077;-58
2021/01/07 05:28:47;;;;;;;0.40;0.40;;;1.80;99.90;;;;;;4429050;32;20073;-58
2021/01/07 05:31:13;;;;;;;0.47;0.47;;;1.80;99.90;;;;;;4427902;32;20182;-58
2021/01/07 05:33:39;;;;;;;0.47;0.47;;;1.80;99.90;;;;;;4430086;32;20064;-59
2021/01/07 05:36:26;;;;;;;3.92;1.27;;;1.80;99.90;;;;;;4428566;32;20128;-58
2021/01/07 05:38:53;;;;;;;0.40;0.40;;;1.80;99.90;;;;;;4428184;32;20100;-59
2021/01/07 05:41:21;;;;;;;22.87;1.15;;;1.80;99.90;;;;;;4428735;32;20137;-58
2021/01/07 05:43:58;;;;;;;0.40;0.40;;;1.80;99.90;;;;;;4429360;32;20061;-57
2021/01/07 05:46:24;;;;;;;0.30;0.30;;;1.80;99.90;;;;;;4429258;32;20065;-59
2021/01/07 05:48:53;;;;;;;0.40;0.40;;;1.90;99.90;;;;;;4431718;32;20077;-59
2021/01/07 05:51:23;;;;;;;0.45;0.45;;;1.90;99.90;;;;;;4443463;32;20057;-59
2021/01/07 05:53:50;;;;;;;0.32;0.32;;;1.90;99.90;;;;;;4445498;32;20089;-59
2021/01/07 05:56:20;;;;;;;0.40;0.40;;;1.90;99.90;;;;;;4446548;32;20137;-58
2021/01/07 05:58:48;;;;;;;2.10;1.00;;;1.90;99.90;;;;;;4446274;32;20080;-58
2021/01/07 06:01:16;;;;;;;1.92;0.95;;;1.90;99.90;;;;;;4445803;32;20476;-59
2021/01/07 06:03:57;;;;;;;0.40;0.40;;;1.80;99.90;;;;;;4431280;32;20061;-58
2021/01/07 06:06:23;;;;;;;;;;;1.80;99.90;;;;;;4455909;32;20092;-57
2021/01/07 06:08:51;;;;;;;0.40;0.40;;;1.90;99.90;;;;;;4441535;32;20346;-58
2021/01/07 06:11:18;;;;;;;0.45;0.45;;;2.00;99.90;;;;;;4430729;32;20068;-59
2021/01/07 06:13:45;;;;;;;0.55;0.55;;;1.90;99.90;;;;;;4430825;32;20082;-59
2021/01/07 06:16:16;;;;;;;0.40;0.40;;;1.90;99.90;;;;;;4429668;32;20127;-58
2021/01/07 06:18:41;;;;;;;;;;;2.00;99.90;;;;;;4432167;32;20077;-59
2021/01/07 06:21:08;;;;;;;0.30;0.30;;;1.90;99.90;;;;;;4430130;32;20019;-59
2021/01/07 06:23:42;;;;;;;0.77;0.60;;;1.90;99.90;;;;;;4416667;32;20094;-55
2021/01/07 06:26:17;;;;;;;0.32;0.32;;;1.80;99.90;;;;;;4430140;32;20173;-57
2021/01/07 06:28:45;;;;;;;0.50;0.50;;;1.90;99.90;;;;;;4417628;32;20140;-59
2021/01/07 06:31:14;;;;;;;0.32;0.32;;;1.90;99.90;;;;;;4431839;32;20085;-59
2021/01/07 06:33:42;;;;;;;0.40;0.40;;;1.90;99.90;;;;;;4431983;32;20410;-59
2021/01/07 06:36:09;;;;;;;0.40;0.40;;;1.90;99.90;;;;;;4429845;32;20510;-59
2021/01/07 06:38:35;;;;;;;0.50;0.50;;;2.00;99.90;;;;;;4430865;32;20139;-59
2021/01/07 06:41:00;;;;;;;0.40;0.40;;;2.00;99.90;;;;;;4430387;32;20391;-59
2021/01/07 06:43:26;;;;;;;0.40;0.40;;;1.90;99.90;;;;;;4430357;32;20533;-57
2021/01/07 06:45:54;;;;;;;0.88;0.88;;;1.90;99.90;;;;;;4430464;32;20065;-59
2021/01/07 06:48:32;;;;;;;0.47;0.47;;;1.90;99.90;;;;;;4430806;32;20069;-59
2021/01/07 06:50:59;;;;;;;0.30;0.30;;;1.90;99.90;;;;;;4417341;32;20127;-58
2021/01/07 06:53:26;;;;;;;0.40;0.40;;;2.00;99.90;;;;;;4430363;32;20115;-59
2021/01/07 06:56:14;;;;;;;0.40;0.40;;;1.90;99.90;;;;;;4429399;32;20489;-58
2021/01/07 06:58:41;;;;;;;0.68;0.50;;;1.80;99.90;;;;;;4432042;32;20069;-59
2021/01/07 07:01:22;;;;;;;0.37;0.37;;;1.80;99.90;;;;;;4444667;32;20125;-57
2021/01/07 07:03:51;;;;;;;0.30;0.30;;;1.80;99.90;;;;;;4444616;32;20151;-58
2021/01/07 07:06:19;;;;;;;0.60;0.60;;;1.80;99.90;;;;;;4445233;32;20065;-57
2021/01/07 07:08:46;;;;;;;0.40;0.40;;;1.80;99.90;;;;;;4422054;32;20065;-58
2021/01/07 07:11:24;;;;;;;0.40;0.40;;;1.90;99.90;;;;;;4435383;32;20643;-55
2021/01/07 07:13:55;;;;;;;0.40;0.40;;;1.90;99.90;;;;;;4446352;32;20072;-55
2021/01/07 07:16:21;;;;;;;0.70;0.70;;;1.80;99.90;;;;;;4446341;32;20081;-54
2021/01/07 07:18:46;;;;;;;1.30;1.20;;;1.80;99.90;;;;;;4434975;32;20069;-54
2021/01/07 07:21:15;;;;;;;0.40;0.40;;;1.90;99.90;;;;;;4440475;32;20418;-59
2021/01/07 07:23:42;;;;;;;0.60;0.60;;;1.80;99.90;;;;;;4445357;32;20089;-59
2021/01/07 07:26:10;;;;;;;0.50;0.50;;;1.80;99.90;;;;;;4445198;32;20120;-59
2021/01/07 07:28:36;;;;;;;0.55;0.55;;;1.80;99.90;;;;;;4432774;32;20123;-58
2021/01/07 07:31:01;;;;;;;0.55;0.55;;;1.70;99.90;;;;;;4446006;32;20072;-59
2021/01/07 07:33:32;;;;;;;0.50;0.50;;;1.80;99.90;;;;;;4444906;32;20452;-57
2021/01/07 07:35:58;;;;;;;0.70;0.70;;;1.90;99.90;;;;;;4429356;32;20078;-59
2021/01/07 07:38:33;;;;;;;0.40;0.40;;;1.90;99.90;;;;;;4444130;32;20433;-59
2021/01/07 07:41:03;;;;;;;0.40;0.40;;;1.90;99.90;;;;;;4443235;32;20065;-58
2021/01/07 07:43:29;;;;;;;0.35;0.35;;;1.90;99.90;;;;;;4443347;32;20057;-59
2021/01/07 07:45:55;;;;;;;0.40;0.40;;;1.90;99.90;;;;;;4443892;32;20080;-59
2021/01/07 07:48:24;;;;;;;1.67;0.80;;;1.90;99.90;;;;;;4445098;32;20056;-59
2021/01/07 07:50:50;;;;;;;0.40;0.40;;;1.90;99.90;;;;;;4429772;32;20065;-59
2021/01/07 07:53:16;;;;;;;15.90;1.60;;;1.90;99.90;;;;;;4445758;32;20053;-58
2021/01/07 07:55:43;;;;;;;0.60;0.60;;;1.90;99.90;;;;;;4438605;32;20095;-59
2021/01/07 07:58:13;;;;;;;0.50;0.50;;;1.90;99.90;;;;;;4443421;32;20061;-59
2021/01/07 08:00:47;;;;;;;0.40;0.40;;;1.90;99.90;;;;;;4438770;32;20424;-59
2021/01/07 08:03:13;;;;;;;2.50;0.80;;;1.90;99.90;;;;;;4430194;32;20053;-58
2021/01/07 08:05:38;;;;;;;0.32;0.32;;;2.00;99.90;;;;;;4434717;32;20060;-59
2021/01/07 08:08:04;;;;;;;0.50;0.50;;;1.90;99.90;;;;;;4430271;32;20058;-59
2021/01/07 08:10:29;;;;;;;0.50;0.50;;;2.00;99.90;;;;;;4438561;32;20137;-59
2021/01/07 08:12:55;;;;;;;0.40;0.40;;;2.00;99.90;;;;;;4431095;32;20095;-59
2021/01/07 08:15:36;;;;;;;0.60;0.60;;;2.00;99.90;;;;;;4429462;32;20519;-57
2021/01/07 08:18:25;;;;;;;0.62;0.62;;;1.90;99.90;;;;;;4433360;32;20062;-61
2021/01/07 08:20:53;;;;;;;0.40;0.40;;;2.00;99.90;;;;;;4430018;32;20065;-60
2021/01/07 08:23:20;;;;;;;0.30;0.30;;;2.10;99.90;;;;;;4439844;32;20073;-60
2021/01/07 08:25:48;;;;;;;0.40;0.40;;;2.10;99.90;;;;;;4445051;32;20069;-58
2021/01/07 08:28:38;;;;;;;1.23;1.12;;;2.20;99.90;;;;;;4443986;32;20061;-56
2021/01/07 08:31:10;;;;;;;0.50;0.50;;;2.30;99.90;;;;;;4430289;32;20073;-59
2021/01/07 08:33:36;;;;;;;0.40;0.40;;;2.30;99.90;;;;;;4429604;32;20073;-58
2021/01/07 08:36:08;;;;;;;0.30;0.30;;;2.30;99.90;;;;;;4441459;32;20065;-60
2021/01/07 08:38:35;;;;;;;0.55;0.55;;;2.20;99.90;;;;;;4442681;32;20253;-59
2021/01/07 08:41:19;;;;;;;0.30;0.30;;;2.20;99.90;;;;;;4430281;32;98112;-56
2021/01/07 08:43:47;;;;;;;0.60;0.60;;;2.20;99.90;;;;;;4429521;32;20093;-58
2021/01/07 08:46:14;;;;;;;0.35;0.35;;;2.20;99.90;;;;;;4428870;32;20078;-60
2021/01/07 08:48:40;;;;;;;0.40;0.40;;;2.20;99.90;;;;;;4431232;32;20514;-59
2021/01/07 08:51:21;;;;;;;0.40;0.40;;;2.30;99.90;;;;;;4428519;32;20049;-60
2021/01/07 08:53:51;;;;;;;0.30;0.30;;;2.30;99.90;;;;;;4415699;32;20061;-59
2021/01/07 08:56:34;;;;;;;0.40;0.40;;;2.20;99.90;;;;;;4431902;32;20094;-59
2021/01/07 08:59:22;;;;;;;0.30;0.30;;;2.20;99.90;;;;;;4442794;32;20058;-59
2021/01/07 09:01:49;;;;;;;0.40;0.40;;;2.20;99.90;;;;;;4444196;32;20056;-60
2021/01/07 09:04:36;;;;;;;0.32;0.32;;;2.10;99.90;;;;;;4443949;32;20053;-58
2021/01/07 09:07:04;;;;;;;0.35;0.35;;;2.20;99.90;;;;;;4423171;32;20061;-59
2021/01/07 09:09:51;;;;;;;0.30;0.30;;;2.20;99.90;;;;;;4429362;32;20061;-57
2021/01/07 09:12:22;;;;;;;0.40;0.40;;;2.20;99.90;;;;;;4428803;32;20113;-59
2021/01/07 09:15:04;;;;;;;0.30;0.30;;;2.20;99.90;;;;;;4428426;32;20064;-59
2021/01/07 09:17:43;;;;;;;0.30;0.30;;;2.10;99.90;;;;;;4429609;32;20459;-58
2021/01/07 09:20:12;;;;;;;0.40;0.40;;;2.10;99.90;;;;;;4429711;32;20531;-59
2021/01/07 09:22:37;;;;;;;0.32;0.32;;;2.20;99.90;;;;;;4428061;32;20061;-60
2021/01/07 09:25:03;;;;;;;1.25;0.62;;;2.20;99.90;;;;;;4429816;32;20148;-60
2021/01/07 09:27:29;;;;;;;0.40;0.40;;;2.20;99.90;;;;;;4429227;32;20082;-60
2021/01/07 09:29:55;;;;;;;0.45;0.45;;;2.20;99.90;;;;;;4418672;32;20069;-59
2021/01/07 09:32:20;;;;;;;0.47;0.47;;;2.30;99.90;;;;;;4432826;32;20061;-57
2021/01/07 09:34:46;;;;;;;0.40;0.40;;;2.30;99.90;;;;;;4441325;32;20057;-58
2021/01/07 09:37:16;;;;;;;0.80;0.75;;;2.30;99.90;;;;;;4444821;32;20061;-58
2021/01/07 09:39:44;;;;;;;0.30;0.30;;;2.30;99.90;;;;;;4434041;32;20531;-58
2021/01/07 09:42:10;;;;;;;0.32;0.32;;;2.30;99.90;;;;;;4445336;32;20061;-59
2021/01/07 09:44:36;;;;;;;0.30;0.30;;;2.20;99.90;;;;;;4446559;32;20066;-59
2021/01/07 09:47:03;;;;;;;0.40;0.40;;;2.20;99.90;;;;;;4446088;32;20589;-59
2021/01/07 09:49:28;;;;;;;0.40;0.40;;;2.30;99.90;;;;;;4446554;32;20068;-58
2021/01/07 09:51:55;;;;;;;0.68;0.68;;;2.30;99.90;;;;;;4446226;32;20070;-59
2021/01/07 09:54:23;;;;;;;0.40;0.40;;;2.40;99.90;;;;;;4445517;32;20523;-58
2021/01/07 09:56:52;;;;;;;0.30;0.30;;;2.40;99.90;;;;;;4440469;32;20535;-58
2021/01/07 09:59:17;;;;;;;0.30;0.30;;;2.30;99.90;;;;;;4431990;32;20064;-59
2021/01/07 10:01:43;;;;;;;0.50;0.50;;;2.40;99.90;;;;;;4430864;32;20142;-58
2021/01/07 10:04:08;;;;;;;0.40;0.40;;;2.40;99.90;;;;;;4431691;32;20097;-56
2021/01/07 10:06:34;;;;;;;0.37;0.37;;;2.30;99.90;;;;;;4438772;32;20049;-58
2021/01/07 10:08:59;;;;;;;0.65;0.43;;;2.30;99.90;;;;;;4447170;32;20065;-60
2021/01/07 10:11:25;;;;;;;0.35;0.35;;;2.30;99.90;;;;;;4439915;32;20066;-60
2021/01/07 10:13:50;;;;;;;0.55;0.55;;;2.40;99.90;;;;;;4432175;32;20078;-59
2021/01/07 10:16:16;;;;;;;0.50;0.50;;;2.40;99.90;;;;;;4431446;32;20502;-58
2021/01/07 10:18:42;;;;;;;0.55;0.52;;;2.40;99.90;;;;;;4431303;32;20065;-59
2021/01/07 10:21:09;;;;;;;0.40;0.40;;;2.50;99.90;;;;;;4430375;32;20100;-59
2021/01/07 10:23:36;;;;;;;0.30;0.30;;;2.60;99.90;;;;;;4431244;32;20506;-59
2021/01/07 10:26:03;;;;;;;0.30;0.30;;;2.50;99.90;;;;;;4429905;32;20120;-58
2021/01/07 10:28:29;;;;;;;0.45;0.45;;;2.50;99.90;;;;;;4429836;32;20534;-60
2021/01/07 10:30:54;;;;;;;0.35;0.35;;;2.50;99.90;;;;;;4430482;32;20057;-59
2021/01/07 10:33:21;;;;;;;0.40;0.40;;;2.50;99.90;;;;;;4430510;32;20443;-60
2021/01/07 10:35:46;;;;;;;0.40;0.40;;;2.60;99.90;;;;;;4429338;32;20111;-60
2021/01/07 10:38:19;;;;;;;0.50;0.50;;;2.60;99.90;;;;;;4431556;32;20147;-57
2021/01/07 10:40:45;;;;;;;1.35;0.73;;;2.50;99.90;;;;;;4429870;32;20125;-60
2021/01/07 10:43:12;;;;;;;0.90;0.70;;;2.50;99.90;;;;;;4431759;32;20076;-57
2021/01/07 10:45:40;;;;;;;0.30;0.30;;;2.50;99.90;;;;;;4416782;32;20412;-58
2021/01/07 10:48:14;;;;;;;0.30;0.30;;;2.50;99.90;;;;;;4431685;32;20506;-58
2021/01/07 10:50:41;;;;;;;0.40;0.40;;;2.60;99.90;;;;;;4431270;32;20058;-59
2021/01/07 10:53:46;;;;;;;0.70;0.70;;;2.50;99.90;;;;;;4430402;32;20077;-58
2021/01/07 10:56:25;;;;;;;0.47;0.47;;;2.50;99.90;;;;;;4422948;32;20072;-54
2021/01/07 10:59:30;;;;;;;0.30;0.30;;;2.50;99.90;;;;;;4446422;32;20061;-60
2021/01/07 11:02:16;;;;;;;0.35;0.35;;;2.50;99.90;;;;;;4437284;32;20078;-59
2021/01/07 11:05:08;;;;;;;0.37;0.37;;;2.40;99.90;;;;;;4447387;32;20515;-62
2021/01/07 11:07:46;;;;;;;0.40;0.40;;;2.50;99.90;;;;;;4422556;32;20444;-60
2021/01/07 11:10:13;;;;;;;10.20;1.00;;;2.50;99.90;;;;;;4431251;32;20062;-59
2021/01/07 11:12:52;;;;;;;0.68;0.57;;;2.50;99.90;;;;;;4445290;32;20057;-59
2021/01/07 11:15:20;;;;;;;0.40;0.40;;;2.50;99.90;;;;;;4445247;32;20126;-56
2021/01/07 11:17:54;;;;;;;0.35;0.35;;;2.50;99.90;;;;;;4446814;32;20077;-58
2021/01/07 11:20:25;;;;;;;0.40;0.40;;;2.50;99.90;;;;;;4446551;32;20070;-59
2021/01/07 11:22:50;;;;;;;0.30;0.30;;;2.40;99.90;;;;;;4445829;32;20072;-58
2021/01/07 11:25:16;;;;;;;0.30;0.30;;;2.50;99.90;;;;;;4444949;32;20642;-59
2021/01/07 11:27:43;;;;;;;0.98;0.85;;;2.40;99.90;;;;;;4443800;32;20081;-58
2021/01/07 11:30:09;;;;;;;1.02;0.65;;;2.40;99.90;;;;;;4445712;32;20068;-59
2021/01/07 11:32:37;;;;;;;0.30;0.30;;;2.20;99.90;;;;;;4446408;32;20073;-59
2021/01/07 11:35:07;;;;;;;0.70;0.70;;;2.30;99.90;;;;;;4445167;32;20060;-59
2021/01/07 11:38:02;;;;;;;0.98;0.73;;;2.40;99.90;;;;;;4446430;32;20058;-53
2021/01/07 11:40:33;;;;;;;0.30;0.30;;;2.40;99.90;;;;;;4434451;32;20565;-60
2021/01/07 11:43:26;;;;;;;0.40;0.40;;;2.40;99.90;;;;;;4445481;32;20074;-58
2021/01/07 11:45:57;;;;;;;0.40;0.40;;;2.40;99.90;;;;;;4445441;32;20069;-59
2021/01/07 11:48:24;;;;;;;0.40;0.40;;;2.40;99.90;;;;;;4446480;32;20057;-60
2021/01/07 11:51:01;;;;;;;0.30;0.30;;;2.40;99.90;;;;;;4445040;32;20061;-58
2021/01/07 11:53:28;;;;;;;0.32;0.32;;;2.40;99.90;;;;;;4445429;32;20081;-59
2021/01/07 11:55:53;;;;;;;0.40;0.40;;;2.40;99.90;;;;;;4434589;32;20071;-60
2021/01/07 11:58:19;;;;;;;0.45;0.45;;;2.40;99.90;;;;;;4439873;32;20070;-59
2021/01/07 12:00:46;;;;;;;0.40;0.40;;;2.40;99.90;;;;;;4440791;32;20069;-60
2021/01/07 12:03:14;;;;;;;0.40;0.40;;;2.30;99.90;;;;;;4444382;32;20111;-59
2021/01/07 12:05:39;;;;;;;0.45;0.45;;;2.40;99.90;;;;;;4428070;32;20084;-60
2021/01/07 12:08:45;;;;;;;0.30;0.30;;;2.40;99.90;;;;;;4430186;32;20073;-59
2021/01/07 12:11:34;;;;;;;0.62;0.62;;;2.40;99.90;;;;;;4430008;32;20082;-55
2021/01/07 12:14:13;;;;;;;0.32;0.32;;;2.50;99.90;;;;;;4428928;32;20049;-58
2021/01/07 12:16:50;;;;;;;0.30;0.30;;;2.40;99.90;;;;;;4430323;32;20123;-57
2021/01/07 12:19:16;;;;;;;0.80;0.80;;;2.30;99.90;;;;;;4429004;32;20065;-59
2021/01/07 12:21:42;;;;;;;0.30;0.30;;;2.20;99.90;;;;;;4429148;32;20487;-59
2021/01/07 12:24:11;;;;;;;0.40;0.40;;;2.20;99.90;;;;;;4429525;32;20112;-59
2021/01/07 12:26:37;;;;;;;0.43;0.43;;;2.20;99.90;;;;;;4416125;32;20077;-57
2021/01/07 12:29:02;;;;;;;0.30;0.30;;;2.20;99.90;;;;;;4429377;32;20637;-59
2021/01/07 12:31:29;;;;;;;0.30;0.30;;;2.30;99.90;;;;;;4440598;32;20078;-58
2021/01/07 12:34:03;;;;;;;0.40;0.40;;;2.30;99.90;;;;;;4429472;32;20172;-60
2021/01/07 12:36:36;;;;;;;0.45;0.45;;;2.40;99.90;;;;;;4444745;32;20057;-59
2021/01/07 12:39:06;;;;;;;0.30;0.30;;;2.40;99.90;;;;;;4442316;32;20111;-59
2021/01/07 12:41:52;;;;;;;0.30;0.30;;;2.40;99.90;;;;;;4434636;32;20094;-58
2021/01/07 12:44:22;;;;;;;0.50;0.50;;;2.50;99.90;;;;;;4430113;32;20474;-60
2021/01/07 12:46:51;;;;;;;0.40;0.40;;;2.50;99.90;;;;;;4430350;32;20506;-60
2021/01/07 12:49:17;;;;;;;0.40;0.40;;;2.50;99.90;;;;;;4430673;32;20082;-60
2021/01/07 12:51:44;;;;;;;0.40;0.40;;;2.50;99.90;;;;;;4426677;32;20077;-58
2021/01/07 12:54:12;;;;;;;0.70;0.70;;;2.50;99.90;;;;;;4427023;32;20510;-58
2021/01/07 12:56:47;;;;;;;0.30;0.30;;;2.50;99.90;;;;;;4425698;32;20061;-58
2021/01/07 12:59:15;;;;;;;0.32;0.32;;;2.50;99.90;;;;;;4428806;32;20078;-58
2021/01/07 13:01:52;;;;;;;0.35;0.35;;;2.50;99.90;;;;;;4436902;32;20061;-57
2021/01/07 13:04:30;;;;;;;0.40;0.40;;;2.50;99.90;;;;;;4438829;32;20074;-58
2021/01/07 13:06:58;;;;;;;0.30;0.30;;;2.50;99.90;;;;;;4441928;32;20084;-59